createdAt,value
2023-01-05T00:01:11.967Z,21.40
2023-01-05T00:03:39.613Z,20.52
2023-01-05T00:06:12.429Z,22.77
2023-01-05T00:08:40.235Z,19.52
2023-01-05T00:11:34.823Z,17.20
2023-01-05T00:14:21.040Z,19.27
2023-01-05T00:17:07.301Z,19.23
2023-01-05T00:19:53.754Z,21.17
2023-01-05T00:22:31.261Z,20.50
2023-01-05T00:25:01.121Z,20.08
2023-01-05T00:27:30.794Z,17.05
2023-01-05T00:29:59.632Z,17.88
2023-01-05T00:32:28.077Z,18.75
2023-01-05T00:34:56.253Z,18.90
2023-01-05T00:37:25.505Z,18.92
2023-01-05T00:39:53.835Z,16.38
2023-01-05T00:42:21.557Z,19.60
2023-01-05T00:44:48.909Z,17.88
2023-01-05T00:47:16.393Z,15.98
2023-01-05T00:49:43.617Z,16.35
2023-01-05T00:52:11.070Z,15.45
2023-01-05T00:54:38.392Z,14.32
2023-01-05T00:57:07.534Z,13.93
2023-01-05T00:59:36.212Z,14.52
2023-01-05T01:02:03.686Z,15.63
2023-01-05T01:04:32.407Z,14.82
2023-01-05T01:07:00.477Z,12.85
2023-01-05T01:09:28.008Z,17.95
2023-01-05T01:11:55.811Z,12.75
2023-01-05T01:14:23.372Z,13.18
2023-01-05T01:16:50.946Z,13.40
2023-01-05T01:19:20.344Z,16.45
2023-01-05T01:21:48.993Z,12.40
2023-01-05T01:24:18.230Z,12.40
2023-01-05T01:26:46.146Z,15.27
2023-01-05T01:29:13.695Z,12.68
2023-01-05T01:31:41.516Z,11.93
2023-01-05T01:34:08.813Z,10.45
2023-01-05T01:36:36.361Z,11.65
2023-01-05T01:39:03.807Z,11.02
2023-01-05T01:41:35.054Z,10.20
2023-01-05T01:44:03.480Z,9.13
2023-01-05T01:46:31.238Z,7.00
2023-01-05T01:49:04.961Z,6.55
2023-01-05T01:51:35.406Z,7.05
2023-01-05T01:54:05.954Z,5.53
2023-01-05T01:56:37.983Z,8.18
2023-01-05T01:59:05.384Z,9.50
2023-01-05T02:01:33.425Z,7.22
2023-01-05T02:04:02.280Z,9.90
2023-01-05T02:06:30.108Z,7.35
2023-01-05T02:08:57.620Z,7.20
2023-01-05T02:11:49.719Z,7.68
2023-01-05T02:14:32.126Z,9.68
2023-01-05T02:17:18.414Z,9.20
2023-01-05T02:20:04.414Z,11.23
2023-01-05T02:22:37.994Z,10.27
2023-01-05T02:25:40.744Z,9.30
2023-01-05T02:28:45.648Z,10.77
2023-01-05T02:31:21.782Z,10.82
2023-01-05T02:34:17.396Z,11.95
2023-01-05T02:36:56.557Z,10.70
2023-01-05T02:39:33.438Z,11.30
2023-01-05T02:42:21.399Z,12.82
2023-01-05T02:44:49.340Z,10.75
2023-01-05T02:47:28.924Z,13.48
2023-01-05T02:50:06.991Z,11.48
2023-01-05T02:52:43.670Z,12.60
2023-01-05T02:55:14.276Z,11.80
2023-01-05T02:57:56.498Z,11.85
2023-01-05T03:00:30.316Z,13.43
2023-01-05T03:03:31.937Z,12.13
2023-01-05T03:06:04.280Z,12.23
2023-01-05T03:08:33.986Z,11.85
2023-01-05T03:11:34.560Z,17.15
2023-01-05T03:14:13.416Z,16.88
2023-01-05T03:16:40.918Z,14.93
2023-01-05T03:19:32.987Z,18.42
2023-01-05T03:22:26.051Z,12.55
2023-01-05T03:25:12.291Z,13.18
2023-01-05T03:28:00.661Z,11.77
2023-01-05T03:31:16.111Z,13.45
2023-01-05T03:34:08.218Z,11.65
2023-01-05T03:36:46.293Z,10.38
2023-01-05T03:39:14.334Z,10.82
2023-01-05T03:41:41.617Z,13.48
2023-01-05T03:44:09.299Z,13.43
2023-01-05T03:46:40.753Z,13.40
2023-01-05T03:49:09.978Z,12.43
2023-01-05T03:51:41.626Z,10.07
2023-01-05T03:54:10.660Z,13.35
2023-01-05T03:56:39.244Z,9.27
2023-01-05T03:59:07.354Z,10.20
2023-01-05T04:01:37.146Z,11.68
2023-01-05T04:04:05.172Z,9.50
2023-01-05T04:06:32.592Z,8.05
2023-01-05T04:09:00.187Z,7.78
2023-01-05T04:11:27.876Z,7.70
2023-01-05T04:14:03.401Z,6.22
2023-01-05T04:16:33.324Z,5.93
2023-01-05T04:19:06.601Z,7.10
2023-01-05T04:21:34.002Z,5.32
2023-01-05T04:24:01.576Z,4.68
2023-01-05T04:26:29.054Z,4.75
2023-01-05T04:28:56.923Z,6.35
2023-01-05T04:31:26.226Z,5.35
2023-01-05T04:33:56.309Z,5.18
2023-01-05T04:36:25.421Z,4.53
2023-01-05T04:38:55.725Z,4.50
2023-01-05T04:41:22.918Z,5.18
2023-01-05T04:43:52.455Z,3.60
2023-01-05T04:46:20.668Z,4.30
2023-01-05T04:48:50.344Z,4.53
2023-01-05T04:51:20.310Z,3.35
2023-01-05T04:53:48.025Z,3.58
2023-01-05T04:56:18.346Z,4.75
2023-01-05T04:58:46.667Z,4.20
2023-01-05T05:01:13.883Z,5.40
2023-01-05T05:03:43.117Z,3.63
2023-01-05T05:06:14.606Z,3.63
2023-01-05T05:08:42.254Z,4.68
2023-01-05T05:11:10.265Z,5.55
2023-01-05T05:13:40.234Z,3.55
2023-01-05T05:16:08.614Z,4.70
2023-01-05T05:18:36.298Z,4.20
2023-01-05T05:21:05.301Z,3.80
2023-01-05T05:23:36.557Z,3.72
2023-01-05T05:26:05.034Z,4.13
2023-01-05T05:28:32.896Z,4.47
2023-01-05T05:31:00.684Z,2.50
2023-01-05T05:33:28.354Z,2.20
2023-01-05T05:35:55.497Z,3.03
2023-01-05T05:38:22.932Z,4.65
2023-01-05T05:40:50.262Z,4.05
2023-01-05T05:43:17.944Z,5.28
2023-01-05T05:45:50.281Z,5.25
2023-01-05T05:48:19.094Z,4.03
2023-01-05T05:50:46.501Z,5.35
2023-01-05T05:53:13.960Z,2.95
2023-01-05T05:55:41.495Z,5.25
2023-01-05T05:58:09.436Z,3.72
2023-01-05T06:00:36.601Z,4.53
2023-01-05T06:03:04.655Z,3.10
2023-01-05T06:05:31.945Z,2.70
2023-01-05T06:07:59.609Z,7.20
2023-01-05T06:10:27.178Z,2.78
2023-01-05T06:12:55.514Z,3.60
2023-01-05T06:15:23.727Z,3.25
2023-01-05T06:17:51.266Z,5.70
2023-01-05T06:20:18.653Z,5.43
2023-01-05T06:22:46.298Z,2.05
2023-01-05T06:25:13.603Z,3.88
2023-01-05T06:27:41.236Z,3.70
2023-01-05T06:30:08.876Z,2.88
2023-01-05T06:32:36.462Z,5.38
2023-01-05T06:35:03.862Z,2.58
2023-01-05T06:37:31.392Z,4.90
2023-01-05T06:39:58.537Z,2.33
2023-01-05T06:42:26.108Z,2.80
2023-01-05T06:44:53.475Z,3.05
2023-01-05T06:47:21.066Z,4.63
2023-01-05T06:49:48.346Z,1.80
2023-01-05T06:52:17.023Z,2.50
2023-01-05T06:54:45.010Z,5.68
2023-01-05T06:57:12.755Z,2.03
2023-01-05T06:59:40.495Z,4.90
2023-01-05T07:02:17.963Z,3.85
2023-01-05T07:04:45.482Z,6.60
2023-01-05T07:07:14.796Z,4.47
2023-01-05T07:09:42.702Z,4.43
2023-01-05T07:12:10.347Z,7.38
2023-01-05T07:14:38.255Z,5.00
2023-01-05T07:17:05.831Z,3.65
2023-01-05T07:19:33.208Z,3.40
2023-01-05T07:22:01.079Z,2.20
2023-01-05T07:24:28.229Z,4.60
2023-01-05T07:26:55.880Z,5.15
2023-01-05T07:29:23.217Z,4.13
2023-01-05T07:31:52.600Z,4.28
2023-01-05T07:34:20.943Z,5.13
2023-01-05T07:36:49.848Z,4.13
2023-01-05T07:39:17.190Z,5.57
2023-01-05T07:41:45.221Z,7.40
2023-01-05T07:44:12.439Z,5.13
2023-01-05T07:46:40.021Z,6.00
2023-01-05T07:49:07.328Z,5.15
2023-01-05T07:51:35.865Z,4.28
2023-01-05T07:54:03.045Z,5.93
2023-01-05T07:56:30.652Z,8.95
2023-01-05T07:58:58.061Z,9.60
2023-01-05T08:01:26.232Z,4.05
2023-01-05T08:03:53.585Z,5.88
2023-01-05T08:06:21.647Z,4.88
2023-01-05T08:08:49.145Z,8.55
2023-01-05T08:11:18.645Z,6.25
2023-01-05T08:14:04.426Z,6.25
2023-01-05T08:16:33.642Z,5.25
2023-01-05T08:19:01.176Z,9.80
2023-01-05T08:21:29.039Z,4.45
2023-01-05T08:23:59.395Z,6.78
2023-01-05T08:26:27.455Z,7.50
2023-01-05T08:28:54.853Z,5.30
2023-01-05T08:31:27.917Z,8.13
2023-01-05T08:34:00.435Z,6.90
2023-01-05T08:36:28.260Z,6.85
2023-01-05T08:38:55.747Z,12.15
2023-01-05T08:41:25.616Z,11.48
2023-01-05T08:43:54.563Z,7.43
2023-01-05T08:46:24.640Z,10.30
2023-01-05T08:48:54.016Z,11.43
2023-01-05T08:51:21.999Z,7.32
2023-01-05T08:53:49.523Z,9.48
2023-01-05T08:56:17.985Z,3.85
2023-01-05T08:58:45.852Z,7.28
2023-01-05T09:01:15.855Z,7.55
2023-01-05T09:03:43.608Z,4.97
2023-01-05T09:06:12.870Z,4.43
2023-01-05T09:08:42.032Z,4.25
2023-01-05T09:11:15.665Z,4.15
2023-01-05T09:13:46.649Z,4.30
2023-01-05T09:16:24.888Z,6.60
2023-01-05T09:19:04.514Z,4.40
2023-01-05T09:21:32.439Z,6.88
2023-01-05T09:23:59.932Z,5.97
2023-01-05T09:26:28.276Z,9.00
2023-01-05T09:28:55.555Z,5.93
2023-01-05T09:31:23.767Z,4.10
2023-01-05T09:33:51.427Z,3.35
2023-01-05T09:36:19.511Z,6.30
2023-01-05T09:38:51.521Z,8.75
2023-01-05T09:41:30.501Z,3.97
2023-01-05T09:44:07.135Z,5.18
2023-01-05T09:46:38.063Z,6.20
2023-01-05T09:49:08.414Z,5.90
2023-01-05T09:51:36.504Z,5.60
2023-01-05T09:54:04.225Z,6.65
2023-01-05T09:57:07.889Z,6.13
2023-01-05T09:59:25.266Z,12.38
2023-01-05T10:01:54.864Z,3.80
2023-01-05T10:04:30.326Z,8.43
2023-01-05T10:07:08.050Z,6.25
2023-01-05T10:09:39.843Z,3.75
2023-01-05T10:12:37.044Z,4.72
2023-01-05T10:15:10.815Z,6.38
2023-01-05T10:17:44.089Z,7.03
2023-01-05T10:20:50.951Z,4.47
2023-01-05T10:23:56.313Z,7.72
2023-01-05T10:26:39.863Z,6.47
2023-01-05T10:29:23.565Z,10.65
2023-01-05T10:34:55.515Z,7.63
2023-01-05T10:38:00.270Z,12.27
2023-01-05T10:40:46.947Z,10.23
2023-01-05T10:43:30.808Z,4.63
2023-01-05T10:46:29.867Z,6.60
2023-01-05T10:48:46.109Z,7.60
2023-01-05T10:51:14.025Z,4.60
2023-01-05T10:53:43.419Z,7.57
2023-01-05T10:56:25.223Z,7.20
2023-01-05T10:59:12.320Z,8.20
2023-01-05T11:01:44.344Z,9.40
2023-01-05T11:04:33.292Z,13.02
2023-01-05T11:07:06.589Z,13.07
2023-01-05T11:09:39.812Z,9.82
2023-01-05T11:12:21.154Z,13.88
2023-01-05T11:14:58.182Z,12.43
2023-01-05T11:17:27.632Z,12.98
2023-01-05T11:19:56.667Z,13.55
2023-01-05T11:22:40.139Z,8.95
2023-01-05T11:25:30.135Z,12.43
2023-01-05T11:28:16.519Z,10.95
2023-01-05T11:30:59.040Z,12.82
2023-01-05T11:33:30.997Z,12.70
2023-01-05T11:35:59.399Z,15.23
2023-01-05T11:38:29.122Z,15.60
2023-01-05T11:40:58.175Z,14.32
2023-01-05T11:43:28.647Z,10.23
2023-01-05T11:46:00.849Z,10.25
2023-01-05T11:48:32.311Z,9.68
2023-01-05T11:50:59.940Z,9.60
2023-01-05T11:53:48.439Z,14.25
2023-01-05T11:56:22.307Z,13.32
2023-01-05T11:59:00.556Z,9.80
2023-01-05T12:01:28.013Z,9.07
2023-01-05T12:04:14.498Z,15.02
2023-01-05T12:07:03.534Z,10.88
2023-01-05T12:09:36.145Z,11.05
2023-01-05T12:12:26.035Z,14.20
2023-01-05T12:15:28.646Z,9.68
2023-01-05T12:18:18.925Z,9.45
2023-01-05T12:21:01.391Z,8.10
2023-01-05T12:24:06.492Z,7.28
2023-01-05T12:26:41.119Z,6.32
2023-01-05T12:35:27.823Z,10.15
2023-01-05T12:37:58.132Z,5.05
2023-01-05T12:40:51.090Z,5.50
2023-01-05T12:43:40.069Z,8.77
2023-01-05T12:46:13.990Z,9.55
2023-01-05T12:48:46.803Z,7.97
2023-01-05T12:51:22.354Z,8.75
2023-01-05T12:54:05.871Z,6.20
2023-01-05T12:56:44.118Z,5.93
2023-01-05T12:59:43.981Z,3.88
2023-01-05T13:02:35.878Z,5.30
2023-01-05T13:05:17.066Z,8.43
2023-01-05T13:08:07.680Z,8.52
2023-01-05T13:10:47.444Z,10.60
2023-01-05T13:13:21.786Z,6.00
2023-01-05T13:15:57.429Z,9.55
2023-01-05T13:18:26.430Z,7.68
2023-01-05T13:21:08.091Z,8.38
2023-01-05T13:23:43.816Z,7.22
2023-01-05T13:26:15.194Z,5.00
2023-01-05T13:28:42.793Z,6.18
2023-01-05T13:31:41.875Z,9.70
2023-01-05T13:34:24.664Z,6.07
2023-01-05T13:37:10.669Z,8.05
2023-01-05T13:40:15.339Z,12.43
2023-01-05T13:42:53.223Z,7.03
2023-01-05T13:45:57.977Z,7.65
2023-01-05T13:48:58.059Z,5.90
2023-01-05T13:51:44.143Z,6.75
2023-01-05T13:54:43.458Z,6.13
2023-01-05T13:57:23.265Z,6.70
2023-01-05T14:00:11.000Z,7.75
2023-01-05T14:02:44.911Z,6.97
2023-01-05T14:05:24.774Z,8.10
2023-01-05T14:07:52.756Z,8.10
2023-01-05T14:10:32.164Z,5.05
2023-01-05T14:13:00.390Z,7.95
2023-01-05T14:15:40.634Z,7.88
2023-01-05T14:18:32.524Z,5.30
2023-01-05T14:21:10.688Z,5.65
2023-01-05T14:23:38.089Z,4.47
2023-01-05T14:26:07.176Z,8.80
2023-01-05T14:28:34.427Z,7.20
2023-01-05T14:31:08.494Z,5.35
2023-01-05T14:34:07.759Z,9.73
2023-01-05T14:36:39.796Z,5.97
2023-01-05T14:39:38.996Z,6.53
2023-01-05T14:42:12.561Z,6.13
2023-01-05T14:45:01.809Z,9.23
2023-01-05T14:47:40.960Z,6.47
2023-01-05T14:50:34.993Z,7.32
2023-01-05T14:53:14.354Z,6.82
2023-01-05T14:56:01.588Z,4.15
2023-01-05T14:58:44.027Z,6.63
2023-01-05T15:01:47.168Z,6.68
2023-01-05T15:04:22.433Z,5.70
2023-01-05T15:07:00.797Z,4.00
2023-01-05T15:09:53.619Z,8.45
2023-01-05T15:12:56.102Z,9.75
2023-01-05T15:16:01.342Z,8.80
2023-01-05T15:18:46.593Z,7.72
2023-01-05T15:21:35.561Z,4.60
2023-01-05T15:24:24.298Z,6.53
2023-01-05T15:27:19.461Z,5.00
2023-01-05T15:29:52.139Z,6.82
2023-01-05T15:32:26.882Z,3.95
2023-01-05T15:34:55.593Z,6.55
2023-01-05T15:37:43.393Z,6.10
2023-01-05T15:40:22.960Z,8.73
2023-01-05T15:42:54.688Z,6.05
2023-01-05T15:45:29.251Z,7.65
2023-01-05T15:47:58.533Z,8.02
2023-01-05T15:50:30.118Z,7.20
2023-01-05T15:53:01.775Z,14.68
2023-01-05T15:55:30.522Z,9.15
2023-01-05T15:58:04.055Z,6.15
2023-01-05T16:00:34.147Z,4.63
2023-01-05T16:03:18.366Z,6.68
2023-01-05T16:05:46.276Z,6.00
2023-01-05T16:08:15.923Z,7.20
2023-01-05T16:10:51.015Z,6.78
2023-01-05T16:13:25.663Z,7.55
2023-01-05T16:15:55.611Z,12.73
2023-01-05T16:18:27.543Z,8.50
2023-01-05T16:20:56.328Z,4.50
2023-01-05T16:23:33.457Z,8.32
2023-01-05T16:26:01.034Z,10.02
2023-01-05T16:28:28.964Z,4.18
2023-01-05T16:30:56.539Z,8.75
2023-01-05T16:33:34.952Z,6.25
2023-01-05T16:36:18.096Z,4.85
2023-01-05T16:41:14.340Z,3.58
2023-01-05T16:43:50.594Z,5.57
2023-01-05T16:46:20.193Z,5.30
2023-01-05T16:48:52.087Z,7.35
2023-01-05T16:51:45.604Z,4.63
2023-01-05T16:54:22.013Z,4.47
2023-01-05T16:57:01.769Z,6.85
2023-01-05T16:59:50.098Z,2.63
2023-01-05T17:02:49.924Z,7.28
2023-01-05T17:05:23.163Z,4.70
2023-01-05T17:07:56.095Z,17.52
2023-01-05T17:10:26.355Z,6.93
2023-01-05T17:12:59.401Z,6.75
2023-01-05T17:15:30.445Z,4.53
2023-01-05T17:17:58.224Z,5.70
2023-01-05T17:20:29.433Z,6.53
2023-01-05T17:22:57.184Z,10.32
2023-01-05T17:25:28.252Z,7.88
2023-01-05T17:27:55.502Z,6.07
2023-01-05T17:30:23.630Z,4.65
2023-01-05T17:32:50.960Z,5.63
2023-01-05T17:35:20.073Z,6.35
2023-01-05T17:37:47.684Z,5.90
2023-01-05T17:40:20.330Z,7.75
2023-01-05T17:42:48.003Z,7.13
2023-01-05T17:45:21.091Z,8.07
2023-01-05T17:47:48.657Z,5.82
2023-01-05T17:50:28.112Z,15.27
2023-01-05T17:52:55.788Z,12.05
2023-01-05T17:55:23.447Z,26.80
2023-01-05T17:57:50.784Z,11.65
2023-01-05T18:00:22.074Z,7.07
2023-01-05T18:02:51.062Z,7.95
2023-01-05T18:05:19.589Z,5.18
2023-01-05T18:07:47.146Z,6.18
2023-01-05T18:10:17.140Z,9.25
2023-01-05T18:12:44.462Z,5.78
2023-01-05T18:15:13.063Z,6.63
2023-01-05T18:17:40.840Z,5.18
2023-01-05T18:20:10.562Z,3.63
2023-01-05T18:22:38.635Z,4.85
2023-01-05T18:27:39.474Z,3.42
2023-01-05T18:30:08.576Z,8.30
2023-01-05T18:32:36.025Z,7.65
2023-01-05T18:35:07.532Z,4.15
2023-01-05T18:37:37.891Z,3.17
2023-01-05T18:40:06.814Z,3.75
2023-01-05T18:42:34.170Z,5.95
2023-01-05T18:45:09.248Z,2.92
2023-01-05T18:47:47.273Z,3.30
2023-01-05T18:50:14.990Z,7.00
2023-01-05T18:52:42.580Z,7.63
2023-01-05T18:55:11.442Z,7.45
2023-01-05T18:57:38.692Z,7.93
2023-01-05T19:00:07.420Z,13.75
2023-01-05T19:02:34.743Z,16.42
2023-01-05T19:05:02.720Z,10.52
2023-01-05T19:07:30.106Z,8.30
2023-01-05T19:09:57.883Z,8.55
2023-01-05T19:12:25.246Z,9.68
2023-01-05T19:14:52.987Z,14.93
2023-01-05T19:17:20.344Z,11.85
2023-01-05T19:19:48.328Z,10.05
2023-01-05T19:22:15.704Z,17.45
2023-01-05T19:24:43.476Z,31.00
2023-01-05T19:27:10.701Z,19.60
2023-01-05T19:29:38.313Z,7.63
2023-01-05T19:32:06.236Z,14.38
2023-01-05T19:34:33.847Z,16.27
2023-01-05T19:37:03.494Z,9.63
2023-01-05T19:39:31.079Z,12.48
2023-01-05T19:42:06.774Z,9.07
2023-01-05T19:44:36.847Z,19.23
2023-01-05T19:47:04.080Z,10.52
2023-01-05T19:49:31.807Z,16.67
2023-01-05T19:51:59.210Z,9.23
2023-01-05T19:54:27.843Z,9.30
2023-01-05T19:56:55.391Z,9.52
2023-01-05T19:59:33.458Z,11.80
2023-01-05T20:02:02.106Z,25.42
2023-01-05T20:04:30.652Z,77.63
2023-01-05T20:06:58.566Z,80.90
2023-01-05T20:09:26.395Z,31.83
2023-01-05T20:11:59.589Z,65.18
2023-01-05T20:14:34.441Z,171.23
2023-01-05T20:17:07.854Z,127.63
2023-01-05T20:19:36.460Z,72.60
2023-01-05T20:22:07.705Z,33.28
2023-01-05T20:24:37.393Z,39.25
2023-01-05T20:27:12.171Z,57.80
2023-01-05T20:29:40.747Z,86.32
2023-01-05T20:32:19.204Z,40.97
2023-01-05T20:34:52.289Z,75.55
2023-01-05T20:37:20.286Z,167.43
2023-01-05T20:39:47.970Z,17.80
2023-01-05T20:42:15.887Z,18.52
2023-01-05T20:44:46.008Z,3.40
2023-01-05T20:47:13.973Z,12.38
2023-01-05T20:49:42.269Z,13.68
2023-01-05T20:52:10.920Z,4.75
2023-01-05T20:54:39.456Z,2.83
2023-01-05T20:57:07.980Z,3.67
2023-01-05T20:59:39.263Z,4.57
2023-01-05T21:02:18.280Z,3.50
2023-01-05T21:04:52.499Z,2.17
2023-01-05T21:07:20.923Z,5.53
2023-01-05T21:09:50.487Z,2.28
2023-01-05T21:12:19.072Z,3.13
2023-01-05T21:14:46.754Z,3.67
2023-01-05T21:17:15.332Z,3.92
2023-01-05T21:19:43.199Z,5.63
2023-01-05T21:22:11.316Z,2.97
2023-01-05T21:24:39.330Z,3.70
2023-01-05T21:27:07.416Z,4.63
2023-01-05T21:29:35.144Z,4.80
2023-01-05T21:32:02.897Z,3.60
2023-01-05T21:34:30.850Z,4.13
2023-01-05T21:36:58.414Z,5.45
2023-01-05T21:39:28.548Z,4.55
2023-01-05T21:42:14.586Z,2.83
2023-01-05T21:44:42.199Z,3.20
2023-01-05T21:47:10.121Z,4.22
2023-01-05T21:49:38.051Z,3.30
2023-01-05T21:52:24.475Z,4.70
2023-01-05T21:55:10.599Z,6.22
2023-01-05T21:57:38.025Z,4.82
2023-01-05T22:00:07.732Z,5.65
2023-01-05T22:02:35.340Z,4.68
2023-01-05T22:05:03.627Z,4.97
2023-01-05T22:07:31.443Z,4.03
2023-01-05T22:09:59.430Z,7.20
2023-01-05T22:12:27.071Z,4.70
2023-01-05T22:14:55.261Z,6.05
2023-01-05T22:17:23.305Z,4.50
2023-01-05T22:19:53.452Z,4.00
2023-01-05T22:22:21.904Z,2.90
2023-01-05T22:24:50.039Z,6.93
2023-01-05T22:27:17.242Z,6.38
2023-01-05T22:29:45.054Z,5.55
2023-01-05T22:32:12.463Z,6.15
2023-01-05T22:34:44.030Z,5.53
2023-01-05T22:37:11.966Z,5.88
2023-01-05T22:39:39.769Z,7.10
2023-01-05T22:42:08.229Z,3.58
2023-01-05T22:44:36.417Z,6.07
2023-01-05T22:47:04.416Z,8.63
2023-01-05T22:49:32.212Z,6.38
2023-01-05T22:52:00.318Z,5.25
2023-01-05T22:54:28.187Z,5.07
2023-01-05T22:56:55.814Z,6.22
2023-01-05T22:59:23.965Z,4.75
2023-01-05T23:01:51.624Z,4.38
2023-01-05T23:04:19.283Z,8.13
2023-01-05T23:06:46.483Z,5.45
2023-01-05T23:09:16.482Z,5.13
2023-01-05T23:11:46.241Z,7.07
2023-01-05T23:14:14.593Z,5.10
2023-01-05T23:16:42.728Z,5.82
2023-01-05T23:19:10.749Z,8.27
2023-01-05T23:21:38.351Z,8.05
2023-01-05T23:24:06.184Z,10.88
2023-01-05T23:26:33.643Z,6.22
2023-01-05T23:29:01.701Z,7.28
2023-01-05T23:31:29.024Z,8.15
2023-01-05T23:33:57.158Z,5.18
2023-01-05T23:36:24.733Z,6.22
2023-01-05T23:38:52.638Z,5.75
2023-01-05T23:41:20.070Z,6.45
2023-01-05T23:43:48.174Z,7.00
2023-01-05T23:46:20.505Z,10.18
2023-01-05T23:48:49.402Z,5.72
2023-01-05T23:51:17.415Z,5.70
2023-01-05T23:53:47.529Z,6.38
2023-01-05T23:56:17.322Z,8.10
2023-01-05T23:58:45.600Z,7.32
